Time;durP1;ratioP1;P1;durP2;ratioP2;P2;SDS_P1;SDS_P2;PMS_P1;PMS_P2;Temp;Humidity;BMP_temperature;BMP_pressure;BME280_temperature;BME280_humidity;BME280_pressure;Samples;Min_cycle;Max_cycle;Signal;HPM_P1;HPM_P2
2023/01/20 00:01:42;;;;;;;;;;;5.00;99.90;;;5.15;84.85;100855.72;5096970;28;20075;-62
2023/01/20 00:04:11;;;;;;;37.00;25.05;;;5.00;99.90;;;5.17;84.23;100862.75;5078463;28;20451;-62
2023/01/20 00:06:39;;;;;;;34.60;25.10;;;5.00;99.90;;;5.06;84.35;100852.94;5096185;28;20054;-61
2023/01/20 00:09:08;;;;;;;40.60;26.03;;;5.00;99.90;;;4.86;85.27;100844.72;5096230;28;20046;-62
2023/01/20 00:11:37;;;;;;;40.70;28.37;;;4.80;99.90;;;4.54;85.46;100825.81;5096402;28;20067;-62
2023/01/20 00:14:06;;;;;;;40.90;27.30;;;4.50;99.90;;;4.51;86.82;100838.81;5096324;28;20131;-61
2023/01/20 00:16:35;;;;;;;43.37;29.30;;;4.50;99.90;;;4.46;86.88;100843.09;5096147;28;20147;-61
2023/01/20 00:19:04;;;;;;;43.87;29.17;;;4.40;99.90;;;4.34;88.10;100852.44;5096014;28;20048;-61
2023/01/20 00:21:33;;;;;;;40.10;27.13;;;4.30;99.90;;;4.41;88.58;100844.72;5095951;28;20066;-61
2023/01/20 00:24:02;;;;;;;41.97;25.85;;;4.30;99.90;;;4.39;88.58;100841.19;5095917;28;20040;-62
2023/01/20 00:26:30;;;;;;;41.57;27.60;;;4.30;99.90;;;4.53;89.24;100844.06;5095797;28;20035;-62
2023/01/20 00:29:00;;;;;;;46.50;26.10;;;4.40;99.90;;;4.63;88.78;100843.41;5096115;28;20044;-61
2023/01/20 00:31:31;;;;;;;42.38;26.38;;;4.50;99.90;;;4.66;88.17;100834.72;5096088;28;20050;-61
2023/01/20 00:34:01;;;;;;;42.83;26.83;;;4.60;99.90;;;4.80;87.97;100852.44;5095930;28;20058;-61
2023/01/20 00:36:31;;;;;;;43.50;27.75;;;4.70;99.90;;;4.71;87.60;100836.56;5096007;28;20044;-61
2023/01/20 00:39:02;;;;;;;45.97;26.50;;;4.70;99.90;;;4.90;87.26;100858.75;5095740;28;20044;-62
2023/01/20 00:41:31;;;;;;;42.67;25.93;;;4.80;99.90;;;4.90;87.18;100853.50;5095053;28;20401;-61
2023/01/20 00:44:01;;;;;;;39.17;25.57;;;4.80;99.90;;;5.03;87.04;100858.97;5096082;28;20135;-61
2023/01/20 00:46:29;;;;;;;39.65;25.35;;;4.80;99.90;;;5.07;86.30;100857.31;5077553;28;20047;-61
2023/01/20 00:48:57;;;;;;;42.93;26.60;;;4.90;99.90;;;5.03;86.30;100871.22;5095515;28;20036;-62
2023/01/20 00:51:26;;;;;;;37.40;26.33;;;4.90;99.90;;;4.89;86.81;100854.38;5095694;28;20492;-62
2023/01/20 00:53:54;;;;;;;39.87;27.33;;;4.80;99.90;;;4.93;87.32;100867.56;5095357;28;20047;-62
2023/01/20 00:56:22;;;;;;;40.47;25.37;;;4.70;99.90;;;5.04;86.88;100865.13;5095444;28;20131;-61
2023/01/20 00:58:50;;;;;;;38.87;25.43;;;4.80;99.90;;;5.03;86.73;100864.22;5095252;28;20044;-61
2023/01/20 01:01:20;;;;;;;40.20;26.63;;;4.90;99.90;;;4.90;86.50;100846.53;5095234;28;20036;-62
2023/01/20 01:03:51;;;;;;;38.47;25.30;;;4.90;99.90;;;5.06;86.39;100877.41;5095568;28;20051;-61
2023/01/20 01:06:19;;;;;;;39.13;25.60;;;4.90;99.90;;;5.00;86.37;100877.28;5095153;28;20044;-62
2023/01/20 01:08:48;;;;;;;41.90;25.87;;;4.90;99.90;;;4.88;86.26;100869.19;5095085;28;20043;-61
2023/01/20 01:11:16;;;;;;;41.70;25.47;;;4.80;99.90;;;4.94;86.35;100876.28;5095049;28;20044;-62
2023/01/20 01:13:44;;;;;;;46.20;25.70;;;4.80;99.90;;;4.97;86.01;100873.75;5077058;28;20051;-62
2023/01/20 01:16:15;;;;;;;35.87;24.47;;;4.80;99.90;;;4.54;85.91;100825.81;5095220;28;20056;-61
2023/01/20 01:18:45;;;;;;;37.20;23.93;;;4.80;99.90;;;4.80;86.32;100875.19;5077048;28;20417;-61
2023/01/20 01:21:16;;;;;;;38.60;23.87;;;4.70;99.90;;;4.79;86.53;100879.53;5095116;28;20425;-61
2023/01/20 01:23:46;;;;;;;35.30;23.43;;;4.60;99.90;;;4.71;86.13;100888.97;5094793;28;20362;-61
2023/01/20 01:26:14;;;;;;;36.87;23.13;;;4.50;99.90;;;4.62;86.18;100895.75;5094626;28;20139;-61
2023/01/20 01:28:42;;;;;;;37.20;24.27;;;4.50;99.90;;;4.44;86.59;100876.22;5094703;28;20075;-62
2023/01/20 01:31:11;;;;;;;37.63;24.17;;;4.50;99.90;;;4.61;86.65;100894.00;5094916;28;20056;-62
2023/01/20 01:33:39;;;;;;;35.13;23.10;;;4.50;99.90;;;4.65;86.69;100894.09;5094949;28;20066;-61
2023/01/20 01:36:13;;;;;;;36.10;22.97;;;4.50;99.90;;;4.66;86.93;100893.25;5094603;28;20046;-62
2023/01/20 01:38:42;;;;;;;36.40;22.53;;;4.50;99.90;;;4.65;86.25;100901.94;5094465;28;20044;-62
2023/01/20 01:41:13;;;;;;;34.50;22.53;;;4.50;99.90;;;4.54;86.06;100901.75;5094700;28;20051;-61
2023/01/20 01:44:02;;;;;;;37.37;21.23;;;4.40;99.90;;;4.57;86.33;100888.69;5094572;28;20036;-62
2023/01/20 01:46:30;;;;;;;31.10;21.20;;;4.40;99.90;;;4.53;86.68;100879.00;5094328;28;20047;-61
2023/01/20 01:49:01;;;;;;;28.70;20.23;;;4.50;99.90;;;4.71;86.74;100894.22;5094292;28;20036;-62
2023/01/20 01:51:34;;;;;;;;;;;4.50;99.90;;;4.36;86.19;100838.53;5094686;28;20040;-61
2023/01/20 01:54:09;;;;;;;22.80;17.23;;;4.60;99.90;;;4.70;85.93;100900.31;5093539;28;19970;-62
2023/01/20 01:56:41;;;;;;;24.30;17.23;;;4.50;99.90;;;4.42;85.86;100862.22;5094567;28;20073;-62
2023/01/20 01:59:12;;;;;;;25.70;17.20;;;4.50;99.90;;;4.66;85.55;100903.72;5094160;28;20078;-62
2023/01/20 02:01:45;;;;;;;25.60;15.80;;;4.50;99.90;;;4.45;85.68;100892.81;5094364;28;20465;-62
2023/01/20 02:04:16;;;;;;;22.73;16.53;;;4.50;99.90;;;4.47;86.13;100898.97;5094403;28;20044;-61
2023/01/20 02:06:50;;;;;;;23.77;17.67;;;4.40;99.90;;;4.35;86.87;100903.94;5093971;28;20472;-62
2023/01/20 02:09:18;;;;;;;24.90;17.50;;;4.30;99.90;;;4.34;87.09;100884.72;5094314;28;20443;-61
2023/01/20 02:11:51;;;;;;;25.73;18.00;;;4.40;99.90;;;4.35;87.12;100917.03;5093929;28;20032;-62
2023/01/20 02:14:25;;;;;;;28.13;18.43;;;4.30;99.90;;;4.29;88.28;100920.41;5094320;28;20051;-62
2023/01/20 02:17:03;;;;;;;26.03;18.33;;;4.20;99.90;;;4.21;89.48;100913.25;5093839;28;20050;-62
2023/01/20 02:20:04;;;;;;;29.03;19.23;;;4.10;99.90;;;4.23;89.64;100906.31;5093823;28;20085;-62
2023/01/20 02:22:43;;;;;;;29.77;19.13;;;4.20;99.90;;;4.19;89.85;100915.84;5093782;28;20040;-61
2023/01/20 02:25:51;;;;;;;30.27;20.77;;;4.10;99.90;;;4.21;90.48;100911.50;5093948;28;20037;-62
2023/01/20 02:28:43;;;;;;;30.50;20.83;;;4.20;99.90;;;4.28;90.00;100912.50;5093610;28;20040;-61
2023/01/20 02:32:02;;;;;;;29.67;20.10;;;4.20;99.90;;;4.21;89.49;100911.50;5093717;28;20043;-62
2023/01/20 02:34:37;;;;;;;30.27;19.40;;;4.20;99.90;;;4.03;89.79;100886.66;5093545;28;20048;-61
2023/01/20 02:37:13;;;;;;;27.37;19.83;;;4.20;99.90;;;4.23;89.98;100911.53;5093599;28;20438;-61
2023/01/20 02:39:54;;;;;;;38.33;21.70;;;4.20;99.90;;;4.15;90.85;100911.38;5093739;28;20430;-63
2023/01/20 02:42:24;;;;;;;;;;;4.10;99.90;;;4.15;91.38;100913.09;5094299;28;20135;-62
2023/01/20 02:44:59;;;;;;;27.55;20.58;;;4.10;99.90;;;4.19;91.12;100904.47;5093368;28;19926;-61
2023/01/20 02:47:35;;;;;;;32.87;20.63;;;4.10;99.90;;;4.07;90.99;100881.53;5093277;28;20065;-62
2023/01/20 02:50:10;;;;;;;25.67;19.30;;;4.10;99.90;;;4.12;90.72;100908.66;5093490;28;20398;-62
2023/01/20 02:52:42;;;;;;;31.43;20.77;;;4.20;99.90;;;4.14;90.63;100906.97;5092301;28;20052;-61
2023/01/20 02:55:15;;;;;;;29.90;19.50;;;4.20;99.90;;;4.11;90.26;100906.91;5093275;28;20044;-62
2023/01/20 02:57:47;;;;;;;30.03;19.67;;;4.10;99.90;;;4.19;90.08;100909.69;5075571;28;20124;-62
2023/01/20 03:00:22;;;;;;;31.33;18.23;;;4.20;99.90;;;4.30;90.55;100919.56;5093198;28;20105;-62
2023/01/20 03:02:56;;;;;;;25.43;18.93;;;4.30;99.90;;;4.35;90.19;100896.09;5093674;28;20146;-61
2023/01/20 03:05:29;;;;;;;25.50;17.70;;;4.30;99.90;;;4.54;89.94;100909.59;5075125;28;20055;-62
2023/01/20 03:08:01;;;;;;;24.70;16.87;;;4.40;99.90;;;4.65;88.96;100911.53;5093028;28;20060;-61
2023/01/20 03:10:33;;;;;;;26.00;17.70;;;4.50;99.90;;;4.70;88.66;100908.19;5093452;28;20048;-61
2023/01/20 03:13:12;;;;;;;22.83;16.50;;;4.60;99.90;;;4.76;88.13;100907.41;5075348;28;20102;-62
2023/01/20 03:15:51;;;;;;;24.43;17.00;;;4.60;99.90;;;4.77;87.73;100907.44;5093323;28;20510;-61
2023/01/20 03:18:21;;;;;;;24.37;16.70;;;4.60;99.90;;;4.81;87.66;100904.00;5093255;28;20058;-62
2023/01/20 03:20:49;;;;;;;25.77;18.10;;;4.70;99.90;;;4.86;86.98;100901.50;5092953;28;20055;-62
2023/01/20 03:23:18;;;;;;;25.60;17.23;;;4.70;99.90;;;4.85;86.92;100904.94;5093171;28;20290;-61
2023/01/20 03:25:48;;;;;;;26.60;17.27;;;4.70;99.90;;;4.79;86.88;100897.88;5093174;28;20394;-62
2023/01/20 03:28:17;;;;;;;25.00;17.40;;;4.60;99.90;;;4.78;86.66;100893.47;5092862;28;20036;-61
2023/01/20 03:30:45;;;;;;;29.83;18.60;;;4.70;99.90;;;4.78;86.95;100897.84;5092923;28;20036;-62
2023/01/20 03:33:15;;;;;;;25.30;17.90;;;4.60;99.90;;;4.78;86.99;100903.06;5093143;28;20553;-61
2023/01/20 03:35:44;;;;;;;30.83;19.65;;;4.60;99.90;;;4.49;86.81;100866.72;5092877;28;20131;-62
2023/01/20 03:38:13;;;;;;;32.30;21.33;;;4.60;99.90;;;4.68;87.15;100895.88;5092872;28;20405;-62
2023/01/20 03:40:50;;;;;;;33.87;21.63;;;4.60;99.90;;;4.61;87.55;100896.63;5091776;28;20550;-61
2023/01/20 03:43:29;;;;;;;38.07;22.53;;;4.50;99.90;;;4.57;87.35;100904.41;5093127;28;20101;-62
2023/01/20 03:46:05;;;;;;;33.83;22.13;;;4.50;99.90;;;4.59;88.03;100891.34;5092782;28;20036;-62
2023/01/20 03:48:42;;;;;;;36.60;22.77;;;4.60;99.90;;;4.59;88.09;100905.31;5092985;28;20055;-62
2023/01/20 03:51:20;;;;;;;37.23;23.27;;;4.60;99.90;;;4.65;88.11;100903.66;5092712;28;20071;-62
2023/01/20 03:53:53;;;;;;;39.53;24.57;;;4.60;99.90;;;4.43;88.48;100889.28;5092676;28;20082;-61
2023/01/20 03:56:32;;;;;;;40.50;24.87;;;4.50;99.90;;;4.55;88.58;100906.13;5093291;28;20063;-62
2023/01/20 03:59:02;;;;;;;41.40;25.77;;;4.50;99.90;;;4.68;88.62;100903.75;5092666;28;20478;-62
2023/01/20 04:01:36;;;;;;;43.53;26.17;;;4.50;99.90;;;4.68;88.50;100901.13;5092705;28;20409;-62
2023/01/20 04:04:09;;;;;;;43.30;25.53;;;4.50;99.90;;;4.73;88.45;100912.56;5092699;28;20051;-62
2023/01/20 04:06:42;;;;;;;40.13;25.20;;;4.60;99.90;;;4.78;87.98;100916.19;5092605;28;20071;-62
2023/01/20 04:09:17;;;;;;;42.40;25.20;;;4.60;99.90;;;4.67;88.18;100900.25;5092942;28;20161;-62
2023/01/20 04:11:45;;;;;;;40.20;25.23;;;4.60;99.90;;;4.31;87.39;100819.25;5092683;28;20058;-62
2023/01/20 04:14:14;;;;;;;42.73;24.83;;;4.70;99.90;;;4.83;87.84;100917.13;5092749;28;20155;-62
2023/01/20 04:16:42;;;;;;;41.10;25.40;;;4.70;99.90;;;4.85;87.77;100910.19;5076761;28;20143;-61
2023/01/20 04:19:13;;;;;;;44.50;24.70;;;4.70;99.90;;;4.86;87.41;100902.34;5077961;28;20040;-61
2023/01/20 04:21:47;;;;;;;44.80;25.97;;;4.70;99.90;;;4.85;87.68;100897.09;5095991;28;20090;-62
2023/01/20 04:24:21;;;;;;;43.70;25.33;;;4.70;99.90;;;4.87;87.63;100901.50;5096293;28;20048;-62
2023/01/20 04:26:49;;;;;;;45.23;26.80;;;4.70;99.90;;;4.83;87.53;100896.19;5096029;28;20046;-62
2023/01/20 04:29:18;;;;;;;47.00;28.07;;;4.70;99.90;;;4.82;87.87;100902.28;5095758;28;20044;-61
2023/01/20 04:31:46;;;;;;;48.20;27.37;;;4.70;99.90;;;4.82;88.26;100905.75;5095940;28;20127;-61
2023/01/20 04:34:15;;;;;;;45.38;27.27;;;4.60;99.90;;;4.81;88.44;100913.59;5095970;28;20520;-62
2023/01/20 04:36:45;;;;;;;46.77;26.93;;;4.60;99.90;;;4.81;88.69;100914.50;5095686;28;20118;-61
2023/01/20 04:39:13;;;;;;;47.80;28.10;;;4.60;99.90;;;4.72;88.90;100903.84;5095967;28;20044;-61
2023/01/20 04:41:41;;;;;;;50.23;28.60;;;4.60;99.90;;;4.79;89.21;100904.81;5095602;28;20752;-62
2023/01/20 04:44:10;;;;;;;48.80;28.00;;;4.60;99.90;;;4.80;89.48;100910.09;5095532;28;20044;-61
2023/01/20 04:46:40;;;;;;;44.20;28.20;;;4.70;99.90;;;4.83;89.82;100909.28;5095755;28;20044;-62
2023/01/20 04:49:10;;;;;;;48.93;27.63;;;4.70;99.90;;;4.85;89.67;100920.66;5095836;28;20044;-62
2023/01/20 04:51:38;;;;;;;48.07;28.30;;;4.70;99.90;;;4.77;89.88;100906.53;5095701;28;20119;-61
2023/01/20 04:54:08;;;;;;;50.70;27.83;;;4.70;99.90;;;4.94;89.43;100931.31;5095887;28;20040;-62
2023/01/20 04:56:36;;;;;;;42.20;25.42;;;4.80;99.90;;;4.93;89.55;100925.22;5095511;28;20111;-62
2023/01/20 04:59:04;;;;;;;42.90;26.17;;;4.80;99.90;;;4.49;89.61;100844.91;5095562;28;20043;-61
2023/01/20 05:01:33;;;;;;;45.60;25.50;;;4.80;99.90;;;5.08;89.25;100941.22;5095242;28;20093;-62
2023/01/20 05:04:01;;;;;;;43.63;26.87;;;4.90;99.90;;;5.12;89.25;100927.31;5095204;28;20558;-62
2023/01/20 05:06:29;;;;;;;41.27;25.27;;;5.00;99.90;;;5.23;89.15;100945.84;5095131;28;20062;-62
2023/01/20 05:08:58;;;;;;;41.08;23.77;;;5.00;99.90;;;5.15;89.13;100927.38;5095033;28;20036;-62
2023/01/20 05:11:27;;;;;;;43.90;24.60;;;5.10;99.90;;;5.25;88.73;100958.16;5095260;28;20063;-61
2023/01/20 05:13:56;;;;;;;44.83;24.95;;;5.10;99.90;;;5.31;89.08;100953.00;5095554;28;20036;-61
2023/01/20 05:16:24;;;;;;;43.08;23.77;;;5.20;99.90;;;5.36;89.10;100958.34;5095201;28;20400;-62
2023/01/20 05:18:54;;;;;;;36.80;21.58;;;5.20;99.90;;;5.15;88.47;100929.13;5095462;28;20047;-62
2023/01/20 05:21:22;;;;;;;33.60;20.73;;;5.10;99.90;;;5.31;88.57;100955.63;5094931;28;20044;-62
2023/01/20 05:23:53;;;;;;;34.22;20.83;;;5.10;99.90;;;5.29;88.50;100951.22;5094976;28;20043;-61
2023/01/20 05:26:22;;;;;;;;;;;5.10;99.90;;;5.00;89.13;100927.09;5095449;28;20458;-62
2023/01/20 05:28:52;;;;;;;33.72;20.35;;;5.00;99.90;;;5.12;89.24;100948.28;5076828;28;19963;-61
2023/01/20 05:31:20;;;;;;;31.92;20.83;;;4.90;99.90;;;5.10;89.38;100949.09;5094569;28;20066;-62
2023/01/20 05:33:49;;;;;;;33.58;20.65;;;4.90;99.90;;;5.01;89.36;100941.97;5094540;28;20061;-61
2023/01/20 05:36:17;;;;;;;36.13;21.00;;;4.80;99.90;;;4.83;89.56;100918.03;5094613;28;20044;-61
2023/01/20 05:38:46;;;;;;;37.03;20.17;;;4.80;99.90;;;4.92;89.77;100941.78;5094519;28;20051;-62
2023/01/20 05:41:14;;;;;;;28.80;18.57;;;4.80;99.90;;;4.61;90.04;100891.41;5094483;28;20040;-62
2023/01/20 05:43:42;;;;;;;33.77;19.17;;;4.70;99.90;;;4.85;90.55;100942.53;5094421;28;20105;-61
2023/01/20 05:46:12;;;;;;;36.43;20.40;;;4.70;99.90;;;4.88;90.54;100946.94;5094950;28;20042;-62
2023/01/20 05:48:41;;;;;;;33.33;20.05;;;4.70;99.90;;;4.66;90.66;100906.34;5094278;28;20490;-61
2023/01/20 05:51:09;;;;;;;30.87;19.67;;;4.70;99.90;;;4.88;90.90;100937.34;5094295;28;20058;-62
2023/01/20 05:53:37;;;;;;;31.73;19.37;;;4.70;99.90;;;4.93;90.73;100946.19;5094294;28;20054;-62
2023/01/20 05:56:06;;;;;;;27.42;18.58;;;4.80;99.90;;;4.92;90.83;100951.38;5094170;28;20561;-62
2023/01/20 05:58:35;;;;;;;32.83;19.20;;;4.80;99.90;;;4.61;90.91;100896.63;5094412;28;20040;-62
2023/01/20 06:01:07;;;;;;;32.30;18.47;;;4.80;99.90;;;4.71;91.13;100924.75;5094090;28;20123;-61
2023/01/20 06:03:37;;;;;;;27.25;17.35;;;4.80;99.90;;;4.91;91.15;100957.47;5094319;28;20048;-62
2023/01/20 06:06:08;;;;;;;30.27;18.85;;;4.70;99.90;;;4.90;91.29;100955.69;5094827;28;20096;-62
2023/01/20 06:08:36;;;;;;;28.73;17.47;;;4.80;99.90;;;4.84;91.22;100945.97;5093943;28;20044;-62
2023/01/20 06:11:05;;;;;;;29.37;18.37;;;4.70;99.90;;;4.78;91.63;100956.34;5094142;28;20054;-62
2023/01/20 06:13:34;;;;;;;31.17;20.77;;;4.70;99.90;;;4.65;91.76;100943.84;5093891;28;20126;-62
2023/01/20 06:16:02;;;;;;;33.87;21.70;;;4.60;99.90;;;4.56;92.51;100941.94;5093894;28;20104;-62
2023/01/20 06:18:36;;;;;;;30.50;21.00;;;4.50;99.90;;;4.41;92.45;100925.88;5093785;28;20040;-62
2023/01/20 06:21:04;;;;;;;30.90;18.85;;;4.40;99.90;;;4.52;92.70;100947.06;5093772;28;20558;-62
2023/01/20 06:23:32;;;;;;;29.07;20.00;;;4.40;99.90;;;4.55;93.10;100949.75;5093586;28;20059;-62
2023/01/20 06:26:03;;;;;;;30.40;18.80;;;4.40;99.90;;;4.36;93.59;100908.31;5093682;28;20067;-62
2023/01/20 06:28:32;;;;;;;29.35;17.70;;;4.40;99.90;;;4.42;93.55;100940.75;5093703;28;20040;-62
2023/01/20 06:31:02;;;;;;;25.88;17.75;;;4.40;99.90;;;4.45;94.26;100925.09;5093522;28;20044;-62
2023/01/20 06:33:31;;;;;;;26.45;17.42;;;4.40;99.90;;;4.41;94.15;100932.88;5093508;28;20102;-62
2023/01/20 06:36:01;;;;;;;27.60;18.80;;;4.30;99.90;;;4.23;94.73;100903.69;5093548;28;20576;-62
2023/01/20 06:38:31;;;;;;;;;;;4.30;99.90;;;4.30;94.66;100922.16;5093674;28;20127;-62
2023/01/20 06:41:02;;;;;;;33.07;20.80;;;4.30;99.90;;;4.29;95.24;100927.38;5093866;28;19924;-62
2023/01/20 06:43:31;;;;;;;;;;;4.20;99.90;;;4.28;95.26;100923.88;5094145;28;20527;-62
2023/01/20 06:46:00;;;;;;;33.10;20.80;;;4.30;99.90;;;4.23;95.69;100929.84;5093342;28;19927;-62
2023/01/20 06:48:29;;;;;;;30.50;20.10;;;4.20;99.90;;;4.26;96.20;100932.53;5075472;28;20044;-62
2023/01/20 06:51:03;;;;;;;30.67;20.70;;;4.20;99.90;;;4.18;96.28;100932.38;5093758;28;20393;-61
2023/01/20 06:53:31;;;;;;;30.90;19.17;;;4.10;99.90;;;4.11;97.08;100937.44;5093277;28;20067;-62
2023/01/20 06:56:01;;;;;;;31.57;20.73;;;4.10;99.90;;;4.18;97.19;100950.69;5093515;28;20074;-62
2023/01/20 06:58:31;;;;;;;26.70;17.52;;;4.10;99.90;;;4.21;96.84;100944.66;5093248;28;20044;-62
2023/01/20 07:01:07;;;;;;;24.40;18.10;;;4.10;99.90;;;4.03;97.22;100903.25;5093767;28;20044;-62
2023/01/20 07:03:36;;;;;;;26.37;17.47;;;4.10;99.90;;;4.33;96.62;100955.41;5093097;28;20055;-62
2023/01/20 07:06:16;;;;;;;27.10;18.40;;;4.20;99.90;;;4.48;96.09;100972.31;5093200;28;20055;-62
2023/01/20 07:08:46;;;;;;;24.40;16.02;;;4.30;99.90;;;4.60;95.94;100982.19;5074886;28;20048;-62
2023/01/20 07:11:14;;;;;;;23.63;17.90;;;4.40;99.90;;;4.76;95.62;100980.75;5093271;28;20078;-62
2023/01/20 07:13:43;;;;;;;26.20;19.13;;;4.60;99.90;;;4.89;95.14;100972.28;5093251;28;20485;-62
2023/01/20 07:16:11;;;;;;;26.67;20.07;;;4.80;99.90;;;5.05;94.48;100982.22;5093053;28;20036;-62
2023/01/20 07:18:44;;;;;;;27.17;19.20;;;4.90;99.90;;;4.67;93.93;100975.31;5093300;28;20105;-62
2023/01/20 07:21:13;;;;;;;27.90;19.77;;;4.70;99.90;;;4.26;95.12;100974.41;5092995;28;20052;-62
2023/01/20 07:23:42;;;;;;;27.55;20.50;;;4.30;99.90;;;4.17;97.73;100967.25;5093226;28;20047;-62
2023/01/20 07:26:13;;;;;;;32.47;22.20;;;4.10;99.90;;;3.99;96.89;100965.97;5092904;28;20042;-62
2023/01/20 07:28:41;;;;;;;33.93;23.00;;;4.00;99.90;;;3.94;98.09;100973.69;5092975;28;20097;-62
2023/01/20 07:31:13;;;;;;;35.13;24.90;;;3.80;99.90;;;3.81;98.28;100973.38;5093156;28;20040;-62
2023/01/20 07:33:41;;;;;;;36.77;24.63;;;3.70;99.90;;;3.90;98.80;100973.56;5092873;28;20094;-62
2023/01/20 07:36:12;;;;;;;38.93;25.57;;;3.80;99.90;;;3.84;98.49;100968.19;5092752;28;20055;-62
2023/01/20 07:38:41;;;;;;;40.73;27.60;;;3.80;99.90;;;3.79;98.94;100978.56;5092978;28;20562;-62
2023/01/20 07:41:14;;;;;;;39.47;25.93;;;3.70;99.90;;;3.82;99.10;100990.81;5075140;28;20051;-62
2023/01/20 07:43:44;;;;;;;41.20;26.80;;;3.80;99.90;;;3.89;99.11;100984.91;5093032;28;20044;-62
2023/01/20 07:46:13;;;;;;;44.83;27.03;;;3.90;99.90;;;3.78;99.32;100987.25;5093041;28;20067;-61
2023/01/20 07:48:42;;;;;;;36.42;24.98;;;3.80;99.90;;;3.80;99.24;100982.03;5093040;28;20131;-61
2023/01/20 07:51:14;;;;;;;38.37;25.97;;;3.80;99.90;;;3.64;99.64;100975.53;5094363;28;20113;-61
2023/01/20 07:53:46;;;;;;;36.40;25.07;;;3.60;99.90;;;3.71;100.00;100981.81;5096935;28;20051;-62
2023/01/20 07:56:17;;;;;;;37.77;24.80;;;3.70;99.90;;;3.54;100.00;100984.03;5096643;28;20554;-62
2023/01/20 07:58:46;;;;;;;42.90;27.13;;;3.50;99.90;;;3.47;100.00;100987.31;5096800;28;20069;-62
2023/01/20 08:01:18;;;;;;;43.90;28.20;;;3.50;99.90;;;3.14;100.00;100989.03;5096357;28;20493;-62
2023/01/20 08:03:47;;;;;;;41.17;28.37;;;3.20;99.90;;;3.21;100.00;101004.06;5096443;28;20040;-62
2023/01/20 08:06:19;;;;;;;39.73;27.33;;;3.10;99.90;;;3.49;100.00;101022.22;5096905;28;20123;-62
2023/01/20 08:08:48;;;;;;;41.67;29.07;;;3.30;99.90;;;3.67;100.00;100992.22;5096469;28;20048;-61
2023/01/20 08:11:19;;;;;;;45.63;30.10;;;3.60;99.90;;;4.05;100.00;101040.25;5078152;28;20043;-61
2023/01/20 08:13:48;;;;;;;41.37;28.10;;;3.90;99.90;;;4.27;100.00;101050.38;5096164;28;20393;-62
2023/01/20 08:16:18;;;;;;;41.70;28.23;;;4.10;99.90;;;4.38;100.00;101048.91;5096185;28;20474;-62
2023/01/20 08:18:47;;;;;;;41.63;28.92;;;4.20;99.90;;;4.14;100.00;101031.75;5096166;28;20071;-62
2023/01/20 08:21:23;;;;;;;45.73;28.83;;;4.30;99.90;;;3.95;100.00;101047.84;5096062;28;20040;-63
2023/01/20 08:23:51;;;;;;;43.93;28.73;;;4.00;99.90;;;3.94;100.00;101049.56;5096089;28;20074;-62
2023/01/20 08:26:20;;;;;;;47.63;31.17;;;3.90;99.90;;;3.79;100.00;101043.97;5095940;28;20040;-62
2023/01/20 08:28:48;;;;;;;43.40;29.33;;;3.70;99.90;;;3.83;100.00;101045.81;5095841;28;20379;-62
2023/01/20 08:31:20;;;;;;;40.10;26.83;;;3.80;99.90;;;4.13;100.00;101049.16;5095746;28;20130;-62
2023/01/20 08:33:52;;;;;;;40.20;28.80;;;3.90;99.90;;;4.14;100.00;101021.28;5096038;28;20048;-61
2023/01/20 08:36:26;;;;;;;35.57;26.60;;;4.20;99.90;;;4.57;100.00;101076.38;5095824;28;20078;-62
2023/01/20 08:38:56;;;;;;;37.67;26.70;;;4.40;99.90;;;4.68;100.00;101077.53;5096011;28;20039;-62
2023/01/20 08:41:28;;;;;;;39.22;27.33;;;4.50;99.90;;;4.84;99.48;101078.75;5095870;28;20478;-62
2023/01/20 08:43:59;;;;;;;45.07;30.47;;;4.60;99.90;;;4.91;98.78;101078.91;5095635;28;20563;-63
2023/01/20 08:46:28;;;;;;;;;;;4.70;99.90;;;4.68;98.36;101024.25;5078301;28;20052;-63
2023/01/20 08:48:57;;;;;;;28.67;19.43;;;4.80;99.90;;;4.95;97.47;101083.38;5095734;28;19924;-62
2023/01/20 08:51:29;;;;;;;34.23;23.90;;;4.90;99.90;;;4.79;96.50;101083.00;5095731;28;20067;-62
2023/01/20 08:53:58;;;;;;;35.10;23.50;;;4.70;99.90;;;4.97;96.94;101083.41;5095806;28;20406;-63
2023/01/20 08:56:27;;;;;;;30.30;21.23;;;4.80;99.90;;;5.11;96.69;101093.31;5095354;28;20048;-62
2023/01/20 08:58:57;;;;;;;33.53;23.63;;;4.90;99.90;;;4.91;95.30;101088.50;5095311;28;20128;-62
2023/01/20 09:01:29;;;;;;;40.43;30.17;;;4.80;99.90;;;3.86;97.00;101074.66;5094869;28;20040;-62
2023/01/20 09:03:58;;;;;;;36.47;24.47;;;4.00;99.90;;;3.60;99.82;101062.63;5095248;28;20504;-62
2023/01/20 09:06:41;;;;;;;29.83;19.97;;;3.50;99.90;;;3.67;100.00;101068.06;5095303;28;20521;-63
2023/01/20 09:09:11;;;;;;;25.53;19.87;;;3.40;99.90;;;3.90;100.00;101068.66;5095887;28;20067;-62
2023/01/20 09:11:43;;;;;;;31.37;21.53;;;3.60;99.90;;;3.76;100.00;101064.78;5095058;28;20044;-63
2023/01/20 09:14:11;;;;;;;26.23;19.20;;;3.60;99.90;;;3.88;100.00;101074.69;5095441;28;20477;-62
2023/01/20 09:16:40;;;;;;;25.23;19.03;;;3.70;99.90;;;3.55;100.00;101023.28;5095310;28;20032;-62
2023/01/20 09:19:08;;;;;;;25.80;19.63;;;3.60;99.90;;;3.63;100.00;101050.53;5095157;28;20074;-61
2023/01/20 09:21:38;;;;;;;29.27;20.63;;;3.60;99.90;;;3.76;100.00;101079.59;5095239;28;20048;-62
2023/01/20 09:24:07;;;;;;;27.77;20.15;;;3.60;99.90;;;3.92;100.00;101094.84;5095445;28;20048;-62
2023/01/20 09:26:40;;;;;;;27.60;20.80;;;3.70;99.90;;;4.18;99.92;101093.78;5094899;28;20040;-62
2023/01/20 09:29:12;;;;;;;29.90;20.70;;;4.00;99.90;;;4.30;99.73;101099.28;5095093;28;20429;-62
2023/01/20 09:31:43;;;;;;;28.33;20.97;;;4.10;99.90;;;4.30;99.03;101101.91;5094937;28;20047;-62
2023/01/20 09:34:17;;;;;;;28.23;21.67;;;4.20;99.90;;;2.27;98.05;100726.47;5095287;28;20055;-61
2023/01/20 09:36:51;;;;;;;24.70;20.50;;;4.30;99.90;;;4.47;98.53;101108.47;5094984;28;20048;-62
2023/01/20 09:45:23;;;;;;;23.17;17.27;;;4.50;99.90;;;4.72;97.01;101117.78;5094450;28;20458;-63
2023/01/20 09:48:02;;;;;;;23.52;17.30;;;4.60;99.90;;;4.74;97.07;101116.97;5094483;28;20048;-62
2023/01/20 09:53:50;;;;;;;28.98;17.83;;;4.60;99.90;;;4.45;96.95;101108.41;5094269;28;20047;-62
2023/01/20 09:56:23;;;;;;;24.57;18.80;;;4.60;99.90;;;4.42;97.51;101126.69;5093313;28;20063;-61
2023/01/20 09:58:59;;;;;;;28.67;18.87;;;4.40;99.90;;;4.51;98.25;101126.88;5094533;28;20040;-61
2023/01/20 10:01:33;;;;;;;23.50;19.20;;;4.40;99.90;;;4.43;98.35;101098.75;5094497;28;20109;-62
2023/01/20 10:04:11;;;;;;;25.90;18.07;;;4.50;99.90;;;4.37;98.44;101102.13;5094104;28;20040;-62
2023/01/20 10:06:44;;;;;;;26.70;17.93;;;4.50;99.90;;;4.46;98.88;101120.66;5094120;28;20146;-62
2023/01/20 10:09:22;;;;;;;21.70;17.43;;;4.40;99.90;;;4.51;99.33;101128.59;5093972;28;20079;-62
2023/01/20 10:11:55;;;;;;;19.47;16.03;;;4.40;99.90;;;4.52;99.62;101120.81;5093863;28;20149;-62
2023/01/20 10:14:29;;;;;;;20.47;16.87;;;4.40;99.90;;;4.63;99.76;101122.81;5093164;28;20625;-62
2023/01/20 10:17:04;;;;;;;18.10;15.47;;;4.50;99.90;;;4.75;99.64;101123.97;5093824;28;20131;-62
2023/01/20 10:19:38;;;;;;;20.17;15.00;;;4.60;99.90;;;4.88;99.01;101130.38;5094403;28;20127;-62
2023/01/20 10:22:13;;;;;;;17.83;14.57;;;4.70;99.90;;;4.92;99.19;101126.94;5093744;28;20068;-62
2023/01/20 10:24:51;;;;;;;18.83;15.97;;;4.80;99.90;;;4.79;99.04;101090.84;5093954;28;20134;-62
2023/01/20 10:27:20;;;;;;;18.87;14.83;;;4.80;99.90;;;5.08;98.80;101122.09;5093674;28;20044;-62
2023/01/20 10:29:54;;;;;;;16.77;13.57;;;4.90;99.90;;;5.15;98.86;101125.75;5093818;28;20040;-62
2023/01/20 10:32:31;;;;;;;15.43;13.20;;;5.00;99.90;;;5.27;98.61;101120.72;5093526;28;20059;-62
2023/01/20 10:35:07;;;;;;;15.97;12.10;;;5.10;99.90;;;5.36;98.28;101120.94;5075615;28;20044;-62
2023/01/20 10:37:36;;;;;;;16.10;10.57;;;5.20;99.90;;;5.53;98.30;101121.28;5093580;28;20071;-63
2023/01/20 10:40:17;;;;;;;12.27;9.67;;;5.30;99.90;;;5.68;98.23;101116.31;5092471;28;20477;-62